createdAt,value
2023-02-02T00:02:08.243Z,101880.84
2023-02-02T00:04:35.746Z,101868.63
2023-02-02T00:07:05.139Z,101864.41
2023-02-02T00:09:32.888Z,101878.22
2023-02-02T00:12:00.415Z,101869.75
2023-02-02T00:14:29.065Z,101877.47
2023-02-02T00:16:56.669Z,101874.91
2023-02-02T00:19:26.371Z,101870.56
2023-02-02T00:21:53.821Z,101872.28
2023-02-02T00:24:20.809Z,101868.16
2023-02-02T00:26:52.673Z,101875.63
2023-02-02T00:29:21.011Z,101863.41
2023-02-02T00:31:48.667Z,101873.88
2023-02-02T00:34:16.819Z,101880.75
2023-02-02T00:36:44.097Z,101885.75
2023-02-02T00:39:14.070Z,101883.97
2023-02-02T00:41:40.876Z,101878.66
2023-02-02T00:44:25.870Z,101888.22
2023-02-02T00:46:52.685Z,101887.50
2023-02-02T00:49:19.714Z,101883.84
2023-02-02T00:51:46.675Z,101902.63
2023-02-02T00:54:14.337Z,101890.53
2023-02-02T00:56:41.243Z,101894.91
2023-02-02T00:59:08.491Z,101888.47
2023-02-02T01:01:35.630Z,101895.22
2023-02-02T01:04:02.616Z,101902.13
2023-02-02T01:06:29.587Z,101893.66
2023-02-02T01:08:56.237Z,101892.69
2023-02-02T01:11:23.418Z,101903.94
2023-02-02T01:13:50.943Z,101901.28
2023-02-02T01:16:17.927Z,101896.13
2023-02-02T01:18:45.030Z,101892.63
2023-02-02T01:21:12.760Z,101887.72
2023-02-02T01:23:40.197Z,101886.75
2023-02-02T01:26:08.562Z,101879.81
2023-02-02T01:28:35.805Z,101886.91
2023-02-02T01:31:07.119Z,101886.97
2023-02-02T01:33:33.807Z,101896.41
2023-02-02T01:36:03.416Z,101886.97
2023-02-02T01:38:30.840Z,101894.78
2023-02-02T01:40:58.247Z,101894.81
2023-02-02T01:43:31.005Z,101886.16
2023-02-02T01:45:58.866Z,101890.41
2023-02-02T01:48:31.986Z,101887.88
2023-02-02T01:51:01.504Z,101901.75
2023-02-02T01:53:29.563Z,101907.00
2023-02-02T01:55:57.061Z,101912.13
2023-02-02T01:58:28.886Z,101913.16
2023-02-02T02:00:57.641Z,101906.44
2023-02-02T02:03:25.927Z,101909.81
2023-02-02T02:05:56.096Z,101908.44
2023-02-02T02:08:26.214Z,101899.53
2023-02-02T02:10:53.234Z,101903.84
2023-02-02T02:13:21.230Z,101906.44
2023-02-02T02:16:19.461Z,101901.13
2023-02-02T02:19:16.007Z,101894.22
2023-02-02T02:22:07.917Z,101892.41
2023-02-02T02:25:12.199Z,101898.47
2023-02-02T02:27:38.808Z,101892.41
2023-02-02T02:30:11.737Z,101888.97
2023-02-02T02:32:42.318Z,101901.03
2023-02-02T02:35:13.407Z,101899.34
2023-02-02T02:37:41.117Z,101894.16
2023-02-02T02:40:08.357Z,101896.69
2023-02-02T02:42:38.524Z,101890.59
2023-02-02T02:45:06.461Z,101886.97
2023-02-02T02:47:34.654Z,101897.50
2023-02-02T02:50:01.499Z,101889.63
2023-02-02T02:52:28.593Z,101890.41
2023-02-02T02:54:58.813Z,101893.19
2023-02-02T02:57:25.604Z,101895.53
2023-02-02T02:59:58.976Z,101888.69
2023-02-02T03:02:26.434Z,101900.72
2023-02-02T03:05:16.138Z,101897.22
2023-02-02T03:07:47.426Z,101895.59
2023-02-02T03:10:17.511Z,101899.06
2023-02-02T03:12:45.475Z,101905.91
2023-02-02T03:15:13.053Z,101903.50
2023-02-02T03:17:41.300Z,101907.75
2023-02-02T03:20:08.499Z,101899.06
2023-02-02T03:22:35.272Z,101896.69
2023-02-02T03:25:01.987Z,101897.56
2023-02-02T03:27:29.581Z,101893.25
2023-02-02T03:29:57.904Z,101886.41
2023-02-02T03:32:25.043Z,101900.97
2023-02-02T03:34:51.556Z,101892.47
2023-02-02T03:37:18.282Z,101895.94
2023-02-02T03:39:45.252Z,101904.69
2023-02-02T03:42:12.236Z,101894.22
2023-02-02T03:44:38.828Z,101906.53
2023-02-02T03:47:05.993Z,101901.19
2023-02-02T03:49:32.875Z,101896.06
2023-02-02T03:51:59.833Z,101897.78
2023-02-02T03:54:46.167Z,101898.88
2023-02-02T03:57:12.936Z,101899.78
2023-02-02T03:59:39.778Z,101906.44
2023-02-02T04:02:07.014Z,101898.81
2023-02-02T04:04:34.098Z,101901.25
2023-02-02T04:07:01.793Z,101910.03
2023-02-02T04:09:28.621Z,101908.19
2023-02-02T04:11:55.419Z,101914.31
2023-02-02T04:14:22.152Z,101915.13
2023-02-02T04:16:48.836Z,101913.47
2023-02-02T04:19:15.956Z,101910.00
2023-02-02T04:21:42.499Z,101914.25
2023-02-02T04:24:12.918Z,101918.69
2023-02-02T04:26:39.985Z,101917.81
2023-02-02T04:29:07.776Z,101920.34
2023-02-02T04:31:34.804Z,101929.06
2023-02-02T04:34:01.749Z,101929.13
2023-02-02T04:36:28.477Z,101923.06
2023-02-02T04:38:55.709Z,101924.00
2023-02-02T04:41:22.915Z,101922.25
2023-02-02T04:43:49.670Z,101915.22
2023-02-02T04:46:16.493Z,101918.75
2023-02-02T04:48:43.745Z,101921.34
2023-02-02T04:51:13.038Z,101924.00
2023-02-02T04:53:41.671Z,101920.47
2023-02-02T04:56:10.243Z,101929.19
2023-02-02T04:58:37.185Z,101922.38
2023-02-02T05:01:18.029Z,101924.06
2023-02-02T05:03:45.419Z,101913.84
2023-02-02T05:06:15.531Z,101920.69
2023-02-02T05:08:45.307Z,101922.44
2023-02-02T05:11:16.251Z,101934.59
2023-02-02T05:13:50.565Z,101919.75
2023-02-02T05:16:18.345Z,101917.31
2023-02-02T05:18:52.189Z,101907.75
2023-02-02T05:21:20.175Z,101920.69
2023-02-02T05:23:47.013Z,101912.13
2023-02-02T05:26:16.108Z,101915.56
2023-02-02T05:28:43.156Z,101912.00
2023-02-02T05:31:10.300Z,101917.31
2023-02-02T05:33:37.199Z,101914.81
2023-02-02T05:36:04.109Z,101912.41
2023-02-02T05:38:31.488Z,101924.28
2023-02-02T05:40:58.295Z,101917.66
2023-02-02T05:43:26.092Z,101932.16
2023-02-02T05:45:53.054Z,101931.31
2023-02-02T05:48:20.401Z,101924.28
2023-02-02T05:50:50.577Z,101927.84
2023-02-02T05:53:18.245Z,101917.53
2023-02-02T05:55:45.706Z,101929.75
2023-02-02T05:58:12.732Z,101939.31
2023-02-02T06:00:39.614Z,101934.94
2023-02-02T06:03:06.864Z,101938.38
2023-02-02T06:05:33.640Z,101945.34
2023-02-02T06:08:00.820Z,101943.72
2023-02-02T06:10:27.541Z,101938.53
2023-02-02T06:12:54.238Z,101938.53
2023-02-02T06:15:20.876Z,101938.69
2023-02-02T06:17:48.033Z,101945.47
2023-02-02T06:20:15.600Z,101938.53
2023-02-02T06:22:43.840Z,101948.91
2023-02-02T06:25:10.852Z,101944.47
2023-02-02T06:27:38.106Z,101948.91
2023-02-02T06:30:05.367Z,101946.41
2023-02-02T06:32:32.270Z,101949.09
2023-02-02T06:34:59.061Z,101947.38
2023-02-02T06:37:25.870Z,101949.09
2023-02-02T06:39:52.591Z,101950.88
2023-02-02T06:42:21.921Z,101956.19
2023-02-02T06:44:49.775Z,101958.72
2023-02-02T06:47:16.462Z,101962.16
2023-02-02T06:49:43.227Z,101960.47
2023-02-02T06:52:09.948Z,101962.09
2023-02-02T06:54:37.074Z,101965.50
2023-02-02T06:57:04.080Z,101968.25
2023-02-02T06:59:30.719Z,101985.72
2023-02-02T07:01:57.839Z,101980.53
2023-02-02T07:04:25.047Z,101972.75
2023-02-02T07:06:52.176Z,101978.75
2023-02-02T07:09:19.756Z,101979.59
2023-02-02T07:11:46.809Z,101972.75
2023-02-02T07:14:14.491Z,101973.44
2023-02-02T07:16:41.126Z,101980.31
2023-02-02T07:19:07.901Z,101975.28
2023-02-02T07:21:37.497Z,101969.88
2023-02-02T07:24:05.366Z,101968.94
2023-02-02T07:26:32.039Z,101987.19
2023-02-02T07:28:59.726Z,101975.06
2023-02-02T07:31:27.125Z,101980.25
2023-02-02T07:33:54.254Z,101995.09
2023-02-02T07:36:23.745Z,101992.38
2023-02-02T07:38:51.438Z,101993.19
2023-02-02T07:41:18.738Z,101982.00
2023-02-02T07:43:49.229Z,101987.38
2023-02-02T07:46:16.506Z,101990.78
2023-02-02T07:48:43.405Z,101992.59
2023-02-02T07:51:12.385Z,101994.16
2023-02-02T07:53:42.471Z,101997.78
2023-02-02T07:56:13.418Z,101995.13
2023-02-02T07:58:40.756Z,101992.47
2023-02-02T08:01:09.425Z,102008.84
2023-02-02T08:03:36.899Z,102009.59
2023-02-02T08:06:15.867Z,102018.38
2023-02-02T08:08:42.668Z,102013.16
2023-02-02T08:11:10.407Z,102023.56
2023-02-02T08:13:37.456Z,102013.91
2023-02-02T08:16:04.544Z,102026.16
2023-02-02T08:18:32.556Z,102025.13
2023-02-02T08:21:00.595Z,102027.59
2023-02-02T08:23:27.825Z,102029.38
2023-02-02T08:25:54.913Z,102020.69
2023-02-02T08:28:22.496Z,102033.66
2023-02-02T08:30:50.230Z,102034.81
2023-02-02T08:33:17.293Z,102049.41
2023-02-02T08:35:44.575Z,102043.31
2023-02-02T08:38:11.567Z,102039.94
2023-02-02T08:40:39.095Z,102039.63
2023-02-02T08:43:05.987Z,102043.16
2023-02-02T08:46:01.424Z,102036.47
2023-02-02T08:48:22.212Z,102044.22
2023-02-02T08:50:52.941Z,102049.19
2023-02-02T08:53:19.915Z,102050.88
2023-02-02T08:55:46.788Z,102064.00
2023-02-02T08:58:13.396Z,102063.16
2023-02-02T09:00:40.517Z,102060.38
2023-02-02T09:03:07.260Z,102060.38
2023-02-02T09:05:35.675Z,102066.38
2023-02-02T09:08:02.648Z,102071.72
2023-02-02T09:10:31.972Z,102073.47
2023-02-02T09:12:59.013Z,102078.59
2023-02-02T09:15:26.098Z,102088.19
2023-02-02T09:17:53.182Z,102089.78
2023-02-02T09:20:20.603Z,102090.66
2023-02-02T09:22:48.039Z,102089.84
2023-02-02T09:25:15.009Z,102108.09
2023-02-02T09:27:41.853Z,102107.13
2023-02-02T09:30:09.286Z,102108.78
2023-02-02T09:32:36.138Z,102109.75
2023-02-02T09:35:03.430Z,102119.38
2023-02-02T09:37:30.790Z,102116.72
2023-02-02T09:39:57.423Z,102123.84
2023-02-02T09:42:29.205Z,102140.16
2023-02-02T09:44:59.688Z,102142.03
2023-02-02T09:47:32.804Z,102144.78
2023-02-02T09:49:59.698Z,102152.53
2023-02-02T09:52:29.996Z,102153.56
2023-02-02T09:55:03.364Z,102158.84
2023-02-02T09:57:35.339Z,102157.03
2023-02-02T10:00:02.080Z,102157.94
2023-02-02T10:02:45.743Z,102164.03
2023-02-02T10:05:15.563Z,102165.00
2023-02-02T10:07:45.640Z,102164.09
2023-02-02T10:10:20.089Z,102163.44
2023-02-02T10:12:55.978Z,102166.09
2023-02-02T10:15:41.695Z,102165.28
2023-02-02T10:18:23.223Z,102167.13
2023-02-02T10:20:59.009Z,102176.88
2023-02-02T10:23:32.262Z,102169.06
2023-02-02T10:26:05.996Z,102168.25
2023-02-02T10:28:41.496Z,102182.19
2023-02-02T10:31:17.943Z,102181.38
2023-02-02T10:33:52.118Z,102185.84
2023-02-02T10:36:28.784Z,102188.44
2023-02-02T10:39:21.774Z,102176.44
2023-02-02T10:42:03.524Z,102184.38
2023-02-02T10:44:36.968Z,102181.78
2023-02-02T10:47:05.537Z,102193.22
2023-02-02T10:49:38.773Z,102192.25
2023-02-02T10:52:11.636Z,102189.78
2023-02-02T10:54:57.716Z,102189.63
2023-02-02T10:57:42.848Z,102193.22
2023-02-02T11:00:28.391Z,102194.13
2023-02-02T11:02:56.101Z,102193.28
2023-02-02T11:05:43.965Z,102202.72
2023-02-02T11:08:14.794Z,102201.91
2023-02-02T11:10:43.643Z,102217.59
2023-02-02T11:13:15.559Z,102203.91
2023-02-02T11:15:42.265Z,102219.66
2023-02-02T11:18:14.426Z,102216.16
2023-02-02T11:20:41.704Z,102203.84
2023-02-02T11:23:15.902Z,102216.09
2023-02-02T11:25:42.778Z,102219.66
2023-02-02T11:28:18.908Z,102214.31
2023-02-02T11:30:52.410Z,102220.31
2023-02-02T11:33:31.316Z,102213.47
2023-02-02T11:36:00.330Z,102208.16
2023-02-02T11:38:27.860Z,102211.72
2023-02-02T11:40:54.526Z,102202.94
2023-02-02T11:43:29.660Z,102188.16
2023-02-02T11:46:03.082Z,102195.13
2023-02-02T11:48:33.993Z,102195.06
2023-02-02T11:51:01.356Z,102199.59
2023-02-02T11:53:32.971Z,102205.59
2023-02-02T11:56:02.499Z,102200.59
2023-02-02T11:58:30.748Z,102193.56
2023-02-02T12:01:01.627Z,102195.34
2023-02-02T12:03:36.903Z,102193.44
2023-02-02T12:06:20.153Z,102198.09
2023-02-02T12:08:47.354Z,102201.31
2023-02-02T12:11:21.437Z,102200.47
2023-02-02T12:13:48.509Z,102200.41
2023-02-02T12:16:38.392Z,102204.66
2023-02-02T12:19:08.331Z,102203.03
2023-02-02T12:21:35.434Z,102199.78
2023-02-02T12:24:03.634Z,102202.38
2023-02-02T12:26:31.837Z,102194.81
2023-02-02T12:29:14.655Z,102197.09
2023-02-02T12:31:45.073Z,102205.66
2023-02-02T12:34:32.860Z,102201.41
2023-02-02T12:37:16.520Z,102196.03
2023-02-02T12:39:55.225Z,102200.47
2023-02-02T12:42:33.868Z,102206.50
2023-02-02T12:45:16.284Z,102195.25
2023-02-02T12:48:06.295Z,102194.63
2023-02-02T12:50:51.836Z,102201.44
2023-02-02T12:53:19.109Z,102200.53
2023-02-02T12:55:51.740Z,102194.44
2023-02-02T12:58:35.716Z,102197.88
2023-02-02T13:01:08.519Z,102186.69
2023-02-02T13:03:43.510Z,102184.16
2023-02-02T13:06:25.567Z,102181.63
2023-02-02T13:09:03.684Z,102180.63
2023-02-02T13:11:39.144Z,102186.91
2023-02-02T13:14:09.570Z,102184.09
2023-02-02T13:16:38.224Z,102195.34
2023-02-02T13:19:07.033Z,102199.63
2023-02-02T13:21:36.280Z,102194.38
2023-02-02T13:24:06.018Z,102203.84
2023-02-02T13:26:37.826Z,102198.69
2023-02-02T13:29:11.692Z,102204.56
2023-02-02T13:31:51.205Z,102198.63
2023-02-02T13:34:21.014Z,102202.78
2023-02-02T13:36:51.041Z,102217.53
2023-02-02T13:39:21.536Z,102221.81
2023-02-02T13:41:49.611Z,102218.25
2023-02-02T13:44:29.692Z,102224.44
2023-02-02T13:47:00.788Z,102226.03
2023-02-02T13:49:28.913Z,102219.91
2023-02-02T13:52:04.206Z,102217.22
2023-02-02T13:54:39.692Z,102218.06
2023-02-02T13:57:06.464Z,102221.44
2023-02-02T13:59:33.392Z,102213.72
2023-02-02T14:02:01.519Z,102213.38
2023-02-02T14:04:30.020Z,102213.38
2023-02-02T14:06:59.311Z,102214.22
2023-02-02T14:09:28.132Z,102209.78
2023-02-02T14:11:58.898Z,102216.66
2023-02-02T14:14:31.829Z,102209.69
2023-02-02T14:17:00.499Z,102214.97
2023-02-02T14:19:27.385Z,102215.56
2023-02-02T14:22:09.318Z,102211.38
2023-02-02T14:24:36.361Z,102216.44
2023-02-02T14:27:23.243Z,102223.44
2023-02-02T14:29:53.759Z,102224.16
2023-02-02T14:32:29.754Z,102224.38
2023-02-02T14:35:01.068Z,102223.38
2023-02-02T14:37:27.712Z,102223.38
2023-02-02T14:40:02.286Z,102230.34
2023-02-02T14:42:47.909Z,102220.03
2023-02-02T14:45:16.708Z,102224.41
2023-02-02T14:47:43.454Z,102229.06
2023-02-02T14:50:16.406Z,102238.34
2023-02-02T14:52:43.661Z,102227.94
2023-02-02T14:55:20.059Z,102233.16
2023-02-02T14:57:54.446Z,102242.59
2023-02-02T15:00:23.497Z,102247.88
2023-02-02T15:02:53.795Z,102246.25
2023-02-02T15:05:32.985Z,102254.81
2023-02-02T15:08:06.284Z,102256.50
2023-02-02T15:10:45.200Z,102257.38
2023-02-02T15:13:16.074Z,102254.84
2023-02-02T15:15:44.041Z,102254.78
2023-02-02T15:18:17.600Z,102252.97
2023-02-02T15:20:49.588Z,102252.97
2023-02-02T15:23:19.405Z,102258.34
2023-02-02T15:26:05.963Z,102257.41
2023-02-02T15:28:35.775Z,102261.78
2023-02-02T15:31:08.858Z,102267.78
2023-02-02T15:33:39.584Z,102267.72
2023-02-02T15:36:10.305Z,102272.91
2023-02-02T15:38:38.919Z,102272.84
2023-02-02T15:41:07.698Z,102280.06
2023-02-02T15:43:34.951Z,102280.72
2023-02-02T15:46:04.196Z,102291.03
2023-02-02T15:48:32.456Z,102287.53
2023-02-02T15:51:01.294Z,102294.44
2023-02-02T15:53:32.240Z,102302.88
2023-02-02T15:55:59.326Z,102297.69
2023-02-02T15:58:28.895Z,102301.09
2023-02-02T16:00:57.237Z,102299.25
2023-02-02T16:03:27.059Z,102298.47
2023-02-02T16:05:55.871Z,102297.34
2023-02-02T16:08:28.132Z,102298.41
2023-02-02T16:11:06.681Z,102305.97
2023-02-02T16:13:33.807Z,102312.88
2023-02-02T16:16:06.730Z,102305.00
2023-02-02T16:18:37.955Z,102311.78
2023-02-02T16:21:11.311Z,102300.50
2023-02-02T16:23:38.606Z,102312.66
2023-02-02T16:26:06.926Z,102300.59
2023-02-02T16:28:34.344Z,102312.75
2023-02-02T16:31:02.045Z,102310.91
2023-02-02T16:33:38.500Z,102313.44
2023-02-02T16:36:24.376Z,102318.03
2023-02-02T16:38:52.756Z,102317.75
2023-02-02T16:41:32.122Z,102335.03
2023-02-02T16:44:18.530Z,102336.81
2023-02-02T16:46:49.597Z,102335.13
2023-02-02T16:49:26.805Z,102342.16
2023-02-02T16:52:22.668Z,102342.88
2023-02-02T16:54:51.505Z,102348.94
2023-02-02T16:57:21.525Z,102356.97
2023-02-02T16:59:51.008Z,102349.13
2023-02-02T17:02:27.940Z,102350.78
2023-02-02T17:05:03.037Z,102346.47
2023-02-02T17:07:31.354Z,102352.47
2023-02-02T17:10:20.399Z,102355.91
2023-02-02T17:12:47.546Z,102346.41
2023-02-02T17:15:17.575Z,102347.28
2023-02-02T17:17:44.952Z,102349.03
2023-02-02T17:20:13.056Z,102354.22
2023-02-02T17:22:41.297Z,102356.16
2023-02-02T17:25:14.223Z,102351.91
2023-02-02T17:27:41.046Z,102356.00
2023-02-02T17:30:10.553Z,102361.28
2023-02-02T17:32:37.309Z,102371.75
2023-02-02T17:35:13.267Z,102365.66
2023-02-02T17:37:39.994Z,102366.66
2023-02-02T17:40:07.311Z,102363.03
2023-02-02T17:42:34.849Z,102370.03
2023-02-02T17:45:02.057Z,102375.13
2023-02-02T17:47:29.017Z,102359.72
2023-02-02T17:49:55.747Z,102364.81
2023-02-02T17:52:22.652Z,102357.84
2023-02-02T17:54:49.704Z,102370.88
2023-02-02T17:57:16.587Z,102368.34
2023-02-02T17:59:43.330Z,102373.53
2023-02-02T18:02:13.043Z,102373.44
2023-02-02T18:04:39.606Z,102376.88
2023-02-02T18:07:07.626Z,102371.81
2023-02-02T18:09:34.288Z,102373.53
2023-02-02T18:12:02.213Z,102376.94
2023-02-02T18:14:29.373Z,102366.66
2023-02-02T18:16:56.334Z,102382.16
2023-02-02T18:19:23.291Z,102373.78
2023-02-02T18:21:49.892Z,102379.06
2023-02-02T18:24:17.226Z,102377.13
2023-02-02T18:26:44.003Z,102383.22
2023-02-02T18:29:11.100Z,102377.13
2023-02-02T18:31:40.008Z,102382.47
2023-02-02T18:34:08.448Z,102369.41
2023-02-02T18:36:36.174Z,102374.63
2023-02-02T18:39:02.969Z,102370.53
2023-02-02T18:41:29.718Z,102377.31
2023-02-02T18:43:56.467Z,102378.19
2023-02-02T18:46:23.418Z,102371.19
2023-02-02T18:48:50.127Z,102363.47
2023-02-02T18:51:18.164Z,102380.06
2023-02-02T18:53:46.266Z,102363.47
2023-02-02T18:56:14.549Z,102367.00
2023-02-02T18:58:41.540Z,102351.31
2023-02-02T19:01:16.055Z,102353.09
2023-02-02T19:03:43.483Z,102357.47
2023-02-02T19:06:28.933Z,102354.84
2023-02-02T19:08:55.661Z,102356.59
2023-02-02T19:11:23.843Z,102354.94
2023-02-02T19:13:50.616Z,102342.78
2023-02-02T19:16:28.078Z,102349.81
2023-02-02T19:19:00.444Z,102355.03
2023-02-02T19:21:29.572Z,102356.81
2023-02-02T19:23:56.663Z,102356.81
2023-02-02T19:26:25.073Z,102367.19
2023-02-02T19:28:58.725Z,102356.72
2023-02-02T19:31:25.940Z,102367.13
2023-02-02T19:33:52.925Z,102364.53
2023-02-02T19:36:21.027Z,102367.19
2023-02-02T19:38:49.570Z,102374.13
2023-02-02T19:41:23.789Z,102373.97
2023-02-02T19:44:01.286Z,102378.38
2023-02-02T19:46:30.094Z,102380.94
2023-02-02T19:49:23.532Z,102373.06
2023-02-02T19:51:56.163Z,102369.59
2023-02-02T19:54:27.915Z,102369.56
2023-02-02T19:56:59.895Z,102377.38
2023-02-02T19:59:30.577Z,102384.19
2023-02-02T20:01:58.187Z,102384.28
2023-02-02T20:04:26.738Z,102375.56
2023-02-02T20:06:59.472Z,102380.75
2023-02-02T20:09:29.865Z,102372.00
2023-02-02T20:11:57.353Z,102368.59
2023-02-02T20:14:29.558Z,102366.72
2023-02-02T20:17:02.207Z,102368.41
2023-02-02T20:19:34.534Z,102363.22
2023-02-02T20:22:03.315Z,102358.09
2023-02-02T20:24:37.512Z,102358.19
2023-02-02T20:27:20.985Z,102357.47
2023-02-02T20:29:49.369Z,102349.66
2023-02-02T20:32:21.821Z,102346.19
2023-02-02T20:34:50.123Z,102344.47
2023-02-02T20:37:23.415Z,102350.63
2023-02-02T20:39:57.753Z,102347.06
2023-02-02T20:42:24.916Z,102350.72
2023-02-02T20:44:52.333Z,102343.66
2023-02-02T20:47:19.757Z,102351.53
2023-02-02T20:49:46.674Z,102361.13
2023-02-02T20:52:21.391Z,102358.47
2023-02-02T20:54:48.806Z,102364.59
2023-02-02T20:57:16.139Z,102356.81
2023-02-02T20:59:43.255Z,102355.13
2023-02-02T21:02:18.711Z,102367.19
2023-02-02T21:04:47.177Z,102372.47
2023-02-02T21:07:16.843Z,102365.59
2023-02-02T21:09:44.575Z,102376.00
2023-02-02T21:12:11.737Z,102383.00
2023-02-02T21:14:39.401Z,102400.22
2023-02-02T21:17:14.743Z,102388.16
2023-02-02T21:19:42.488Z,102403.69
2023-02-02T21:22:09.574Z,102403.75
2023-02-02T21:24:36.567Z,102407.28
2023-02-02T21:27:04.573Z,102411.56
2023-02-02T21:29:32.645Z,102409.06
2023-02-02T21:32:02.118Z,102406.63
2023-02-02T21:34:29.152Z,102416.06
2023-02-02T21:36:59.466Z,102404.09
2023-02-02T21:39:34.163Z,102400.59
2023-02-02T21:42:00.824Z,102398.00
2023-02-02T21:44:28.122Z,102400.69
2023-02-02T21:46:54.889Z,102415.34
2023-02-02T21:49:21.986Z,102404.28
2023-02-02T21:51:50.154Z,102404.47
2023-02-02T21:54:22.056Z,102393.78
2023-02-02T21:56:49.629Z,102397.38
2023-02-02T21:59:17.584Z,102393.19
2023-02-02T22:01:45.280Z,102394.00
2023-02-02T22:04:20.257Z,102385.38
2023-02-02T22:06:48.463Z,102386.28
2023-02-02T22:09:18.105Z,102395.84
2023-02-02T22:11:50.244Z,102402.78
2023-02-02T22:14:35.888Z,102408.19
2023-02-02T22:17:14.885Z,102393.41
2023-02-02T22:19:43.461Z,102395.28
2023-02-02T22:22:16.673Z,102396.09
2023-02-02T22:24:48.218Z,102390.00
2023-02-02T22:27:17.987Z,102392.59
2023-02-02T22:29:45.234Z,102384.00
2023-02-02T22:32:12.061Z,102385.06
2023-02-02T22:34:40.120Z,102398.13
2023-02-02T22:37:06.945Z,102389.44
2023-02-02T22:39:34.714Z,102384.16
2023-02-02T22:42:02.985Z,102377.22
2023-02-02T22:44:29.487Z,102393.97
2023-02-02T22:46:56.324Z,102396.41
2023-02-02T22:49:23.820Z,102394.13
2023-02-02T22:51:52.293Z,102396.50
2023-02-02T22:54:21.209Z,102383.78
2023-02-02T22:56:48.203Z,102374.19
2023-02-02T22:59:14.880Z,102372.34
2023-02-02T23:01:42.433Z,102377.53
2023-02-02T23:04:09.309Z,102374.03
2023-02-02T23:06:36.147Z,102363.69
2023-02-02T23:09:03.325Z,102367.38
2023-02-02T23:11:30.179Z,102384.66
2023-02-02T23:13:57.140Z,102379.47
2023-02-02T23:16:24.050Z,102363.94
2023-02-02T23:18:50.703Z,102389.09
2023-02-02T23:21:17.741Z,102382.38
2023-02-02T23:23:44.815Z,102389.28
2023-02-02T23:26:12.241Z,102381.47
2023-02-02T23:28:39.358Z,102385.13
2023-02-02T23:31:06.390Z,102364.16
2023-02-02T23:33:33.542Z,102372.03
2023-02-02T23:36:00.321Z,102360.66
2023-02-02T23:38:27.023Z,102355.44
2023-02-02T23:40:53.616Z,102355.53
2023-02-02T23:43:20.478Z,102360.78
2023-02-02T23:45:47.619Z,102336.50
2023-02-02T23:48:14.168Z,102333.06
2023-02-02T23:50:41.492Z,102318.19
2023-02-02T23:53:10.767Z,102328.59
2023-02-02T23:55:39.833Z,102322.59
2023-02-02T23:58:06.521Z,102313.81
